Time;durP1;ratioP1;P1;durP2;ratioP2;P2;SDS_P1;SDS_P2;PMS_P1;PMS_P2;Temp;Humidity;BMP_temperature;BMP_pressure;BME280_temperature;BME280_humidity;BME280_pressure;Samples;Min_cycle;Max_cycle;Signal;HPM_P1;HPM_P2
2022/07/21 00:02:00;;;;;;;12.65;6.70;;;20.60;99.90;;;;;;5031832;28;20448;-74
2022/07/21 00:04:26;;;;;;;10.88;7.22;;;20.50;99.90;;;;;;5032211;28;20080;-75
2022/07/21 00:06:52;;;;;;;15.95;8.77;;;20.50;99.90;;;;;;5048463;28;20395;-74
2022/07/21 00:09:18;;;;;;;12.68;7.70;;;20.40;99.90;;;;;;5029589;28;20398;-74
2022/07/21 00:11:43;;;;;;;14.55;8.30;;;20.40;99.90;;;;;;5048955;28;20033;-75
2022/07/21 00:14:10;;;;;;;15.57;8.35;;;20.40;99.90;;;;;;5041860;28;20107;-75
2022/07/21 00:16:37;;;;;;;17.80;8.95;;;20.30;99.90;;;;;;5048486;28;20122;-74
2022/07/21 00:19:03;;;;;;;15.65;8.50;;;20.30;99.90;;;;;;5057861;28;20043;-75
2022/07/21 00:21:29;;;;;;;15.02;9.10;;;20.20;99.90;;;;;;4999326;28;20036;-75
2022/07/21 00:23:55;;;;;;;14.32;8.57;;;20.20;99.90;;;;;;5030715;28;20439;-74
2022/07/21 00:26:20;;;;;;;14.82;9.18;;;20.20;99.90;;;;;;5047272;28;20306;-76
2022/07/21 00:28:47;;;;;;;20.65;10.25;;;20.20;99.90;;;;;;5031638;28;20064;-76
2022/07/21 00:31:12;;;;;;;14.98;8.52;;;20.10;99.90;;;;;;5032091;28;20091;-76
2022/07/21 00:33:38;;;;;;;17.52;10.02;;;20.10;99.90;;;;;;4999696;28;20049;-76
2022/07/21 00:36:04;;;;;;;14.45;9.73;;;20.00;99.90;;;;;;5031238;28;20384;-75
2022/07/21 00:38:30;;;;;;;17.55;10.15;;;20.10;99.90;;;;;;4998567;28;20095;-76
2022/07/21 00:40:55;;;;;;;15.82;10.60;;;20.00;99.90;;;;;;5048812;28;20562;-75
2022/07/21 00:43:21;;;;;;;17.35;10.23;;;20.00;99.90;;;;;;5015331;28;20506;-76
2022/07/21 00:45:47;;;;;;;14.07;9.27;;;20.00;99.90;;;;;;5014234;28;20723;-76
2022/07/21 00:48:13;;;;;;;15.32;9.57;;;19.90;99.90;;;;;;5030406;28;20045;-76
2022/07/21 00:50:38;;;;;;;21.77;12.48;;;19.90;99.90;;;;;;5030232;28;20045;-75
2022/07/21 00:53:04;;;;;;;19.02;11.80;;;19.90;99.90;;;;;;5030664;28;20041;-76
2022/07/21 00:55:30;;;;;;;15.27;11.38;;;19.90;99.90;;;;;;5045290;28;20037;-76
2022/07/21 00:57:56;;;;;;;19.67;12.40;;;19.90;99.90;;;;;;5030015;28;20037;-76
2022/07/21 01:00:28;;;;;;;18.55;10.85;;;19.80;99.90;;;;;;5029716;28;20044;-75
2022/07/21 01:02:55;;;;;;;19.42;10.38;;;19.80;99.90;;;;;;5045377;28;20051;-75
2022/07/21 01:05:21;;;;;;;16.52;10.63;;;19.70;99.90;;;;;;5046362;28;20032;-75
2022/07/21 01:07:52;;;;;;;24.48;13.10;;;19.70;99.90;;;;;;5046019;28;20036;-75
2022/07/21 01:10:21;;;;;;;18.88;11.75;;;19.70;99.90;;;;;;5026204;28;20481;-76
2022/07/21 01:12:47;;;;;;;21.30;12.00;;;19.70;99.90;;;;;;5042470;28;20052;-76
2022/07/21 01:15:14;;;;;;;18.85;11.27;;;19.60;99.90;;;;;;5013956;28;20048;-77
2022/07/21 01:17:41;;;;;;;21.35;12.00;;;19.60;99.90;;;;;;5029663;28;20147;-76
2022/07/21 01:20:10;;;;;;;21.35;11.98;;;19.50;99.90;;;;;;5042943;28;20044;-77
2022/07/21 01:22:38;;;;;;;19.85;11.93;;;19.50;99.90;;;;;;5044000;28;20063;-78
2022/07/21 01:25:04;;;;;;;22.02;11.82;;;19.50;99.90;;;;;;5060647;28;20033;-78
2022/07/21 01:27:30;;;;;;;25.33;13.15;;;19.50;99.90;;;;;;5045490;28;20041;-78
2022/07/21 01:29:56;;;;;;;21.23;12.50;;;19.50;99.90;;;;;;5025822;28;20037;-78
2022/07/21 01:32:23;;;;;;;19.33;11.63;;;19.50;99.90;;;;;;5030629;28;20044;-79
2022/07/21 01:34:49;;;;;;;21.63;11.85;;;19.50;99.90;;;;;;5033760;28;20040;-79
2022/07/21 01:37:15;;;;;;;18.85;13.32;;;19.40;99.90;;;;;;5049824;28;20040;-78
2022/07/21 01:42:25;;;;;;;20.33;13.65;;;19.40;99.90;;;;;;5049234;28;20044;-79
2022/07/21 01:44:51;;;;;;;23.55;14.25;;;19.40;99.90;;;;;;5019981;28;20655;-78
2022/07/21 01:47:21;;;;;;;20.65;14.38;;;19.40;99.90;;;;;;5032438;28;20033;-79
2022/07/21 01:49:47;;;;;;;19.80;13.40;;;19.40;99.90;;;;;;5035055;28;20124;-78
2022/07/21 01:52:13;;;;;;;20.95;14.60;;;19.40;99.90;;;;;;5034706;28;20178;-78
2022/07/21 01:54:38;;;;;;;23.85;13.43;;;19.30;99.90;;;;;;5032044;28;20389;-83
2022/07/21 01:57:04;;;;;;;24.50;13.95;;;19.30;99.90;;;;;;5035968;28;20101;-84
2022/07/21 01:59:30;;;;;;;24.48;14.82;;;19.30;99.90;;;;;;5035829;28;20145;-84
2022/07/21 02:01:56;;;;;;;24.95;14.48;;;19.20;99.90;;;;;;5003486;28;20032;-85
2022/07/21 02:04:21;;;;;;;25.58;14.10;;;19.20;99.90;;;;;;5019488;28;20493;-86
2022/07/21 02:06:47;;;;;;;24.38;14.73;;;19.10;99.90;;;;;;5035782;28;20093;-84
2022/07/21 02:09:15;;;;;;;23.23;14.63;;;19.00;99.90;;;;;;5018281;28;20059;-85
2022/07/21 02:11:41;;;;;;;22.75;14.27;;;18.90;99.90;;;;;;5035938;28;20037;-85
2022/07/21 02:14:06;;;;;;;21.58;13.48;;;18.90;99.90;;;;;;5034357;28;20058;-84
2022/07/21 02:16:32;;;;;;;23.42;15.07;;;18.80;99.90;;;;;;5049066;28;20092;-84
2022/07/21 02:18:58;;;;;;;21.60;14.45;;;18.80;99.90;;;;;;5034784;28;20074;-84
2022/07/21 02:21:24;;;;;;;20.10;14.88;;;18.70;99.90;;;;;;5042624;28;20075;-84
2022/07/21 02:23:50;;;;;;;28.25;16.50;;;18.60;99.90;;;;;;5049617;28;20047;-83
2022/07/21 02:26:16;;;;;;;25.52;15.43;;;18.60;99.90;;;;;;5034525;28;20029;-83
2022/07/21 02:28:41;;;;;;;26.38;15.63;;;18.50;99.90;;;;;;5033918;28;20033;-82
2022/07/21 02:31:07;;;;;;;25.77;16.67;;;18.50;99.90;;;;;;5018047;28;20438;-83
2022/07/21 02:33:34;;;;;;;28.02;17.38;;;18.50;99.90;;;;;;5035833;28;20051;-83
2022/07/21 02:35:59;;;;;;;24.17;14.95;;;18.50;99.90;;;;;;5065706;28;20041;-82
2022/07/21 02:38:25;;;;;;;26.48;15.82;;;18.40;99.90;;;;;;5017886;28;20048;-83
2022/07/21 02:40:51;;;;;;;23.75;16.63;;;18.40;99.90;;;;;;5034352;28;20114;-83
2022/07/21 02:43:17;;;;;;;21.45;14.50;;;18.40;99.90;;;;;;5018722;28;20453;-82
2022/07/21 02:45:43;;;;;;;29.98;18.35;;;18.40;99.90;;;;;;5051068;28;20068;-83
2022/07/21 02:48:13;;;;;;;24.35;18.25;;;18.50;99.90;;;;;;5040407;28;20072;-83
2022/07/21 02:50:41;;;;;;;21.83;16.83;;;18.50;99.90;;;;;;5035263;28;20036;-82
2022/07/21 02:53:08;;;;;;;24.20;16.60;;;18.50;99.90;;;;;;5021527;28;20409;-82
2022/07/21 02:55:35;;;;;;;23.85;16.73;;;18.50;99.90;;;;;;5037948;28;20048;-82
2022/07/21 02:58:15;;;;;;;20.92;15.50;;;18.50;99.90;;;;;;5054731;28;20051;-82
2022/07/21 03:00:45;;;;;;;24.05;17.17;;;18.50;99.90;;;;;;5036988;28;20546;-81
2022/07/21 03:03:11;;;;;;;30.10;19.45;;;18.50;99.90;;;;;;5054664;28;20040;-82
2022/07/21 03:05:38;;;;;;;28.73;18.80;;;18.50;99.90;;;;;;5037972;28;20044;-81
2022/07/21 03:08:05;;;;;;;37.58;20.10;;;18.50;99.90;;;;;;5054492;28;20405;-81
2022/07/21 03:10:31;;;;;;;31.30;19.98;;;18.50;99.90;;;;;;5053862;28;20549;-81
2022/07/21 03:12:57;;;;;;;25.02;18.52;;;18.50;99.90;;;;;;5037627;28;20048;-81
2022/07/21 03:15:22;;;;;;;29.45;18.02;;;18.50;99.90;;;;;;5033841;28;20041;-81
2022/07/21 03:17:48;;;;;;;39.60;21.20;;;18.50;99.90;;;;;;5039915;28;20040;-81
2022/07/21 03:20:14;;;;;;;34.53;20.55;;;18.50;99.90;;;;;;5019480;28;20037;-81
2022/07/21 03:22:40;;;;;;;26.60;19.27;;;18.50;99.90;;;;;;5037131;28;20024;-82
2022/07/21 03:25:06;;;;;;;30.60;19.73;;;18.50;99.90;;;;;;5036970;28;20433;-82
2022/07/21 03:27:35;;;;;;;30.02;20.27;;;18.50;99.90;;;;;;5066939;28;20524;-81
2022/07/21 03:30:07;;;;;;;33.55;21.13;;;18.50;99.90;;;;;;5035490;28;20032;-82
2022/07/21 03:32:33;;;;;;;30.80;19.92;;;18.50;99.90;;;;;;5036207;28;20048;-81
2022/07/21 03:34:59;;;;;;;35.15;21.40;;;18.50;99.90;;;;;;5052024;28;20571;-81
2022/07/21 03:37:25;;;;;;;37.35;22.00;;;18.50;99.90;;;;;;5051143;28;20490;-81
2022/07/21 03:39:51;;;;;;;28.48;19.88;;;18.50;99.90;;;;;;5036330;28;20317;-81
2022/07/21 03:42:17;;;;;;;39.22;23.40;;;18.50;99.90;;;;;;5034273;28;20036;-82
2022/07/21 03:44:42;;;;;;;50.28;22.48;;;18.50;99.90;;;;;;5029044;28;20551;-82
2022/07/21 03:47:08;;;;;;;30.45;20.90;;;18.50;99.90;;;;;;5031191;28;20075;-81
2022/07/21 03:49:34;;;;;;;44.40;24.17;;;18.50;99.90;;;;;;5020419;28;20036;-82
2022/07/21 03:51:59;;;;;;;28.00;21.17;;;18.50;99.90;;;;;;5039021;28;20040;-81
2022/07/21 03:54:25;;;;;;;31.52;21.98;;;18.50;99.90;;;;;;5019706;28;20045;-81
2022/07/21 03:56:51;;;;;;;33.30;21.83;;;18.50;99.90;;;;;;5035620;28;20087;-81
2022/07/21 03:59:17;;;;;;;44.53;24.30;;;18.50;99.90;;;;;;5052265;28;20464;-81
2022/07/21 04:01:43;;;;;;;36.25;23.83;;;18.50;99.90;;;;;;5036015;28;20025;-81
2022/07/21 04:04:09;;;;;;;38.17;22.77;;;18.60;99.90;;;;;;5050499;28;20102;-81
2022/07/21 04:06:35;;;;;;;35.22;22.05;;;18.60;99.90;;;;;;5020414;28;20032;-81
2022/07/21 04:09:00;;;;;;;44.47;24.65;;;18.60;99.90;;;;;;5002952;28;20040;-81
2022/07/21 04:11:26;;;;;;;31.52;22.52;;;18.60;99.90;;;;;;5035659;28;20040;-81
2022/07/21 04:13:52;;;;;;;46.55;25.60;;;18.60;99.90;;;;;;5028133;28;20029;-81
2022/07/21 04:16:18;;;;;;;43.85;28.30;;;18.60;99.90;;;;;;5035280;28;20036;-81
2022/07/21 04:18:43;;;;;;;38.95;24.83;;;18.60;99.90;;;;;;5034980;28;20078;-80
2022/07/21 04:21:09;;;;;;;43.97;26.27;;;18.60;99.90;;;;;;5018450;28;20142;-81
2022/07/21 04:23:35;;;;;;;40.25;25.70;;;18.60;99.90;;;;;;5034400;28;20497;-81
2022/07/21 04:26:00;;;;;;;38.38;26.25;;;18.60;99.90;;;;;;5018574;28;20037;-81
2022/07/21 04:28:26;;;;;;;50.33;30.85;;;18.60;99.90;;;;;;5034779;28;20245;-81
2022/07/21 04:30:52;;;;;;;38.88;28.20;;;18.60;99.90;;;;;;5051166;28;20048;-81
2022/07/21 04:33:17;;;;;;;41.03;27.75;;;18.50;99.90;;;;;;5034438;28;20048;-83
2022/07/21 04:35:43;;;;;;;36.85;27.63;;;18.50;99.90;;;;;;5032348;28;20044;-81
2022/07/21 04:38:10;;;;;;;42.28;28.48;;;18.50;99.90;;;;;;5031318;28;20072;-80
2022/07/21 04:40:36;;;;;;;36.00;26.77;;;18.40;99.90;;;;;;5050500;28;20041;-81
2022/07/21 04:43:02;;;;;;;48.67;29.35;;;18.40;99.90;;;;;;5048108;28;20032;-80
2022/07/21 04:45:28;;;;;;;39.67;29.55;;;18.40;99.90;;;;;;5034555;28;20482;-81
2022/07/21 04:47:55;;;;;;;39.80;25.70;;;18.40;99.90;;;;;;5048229;28;20090;-81
2022/07/21 04:50:25;;;;;;;37.22;26.73;;;18.30;99.90;;;;;;5034851;28;20040;-81
2022/07/21 04:52:51;;;;;;;42.85;27.40;;;18.30;99.90;;;;;;5034210;28;20041;-81
2022/07/21 04:55:17;;;;;;;31.58;23.80;;;18.30;99.90;;;;;;5034049;28;20059;-81
2022/07/21 04:57:49;;;;;;;44.38;26.45;;;18.30;99.90;;;;;;5050983;28;20127;-81
2022/07/21 05:00:18;;;;;;;33.80;23.60;;;18.30;99.90;;;;;;5050459;28;20604;-81
2022/07/21 05:02:44;;;;;;;39.42;25.85;;;18.30;99.90;;;;;;5032159;28;20047;-82
2022/07/21 05:05:11;;;;;;;31.60;22.33;;;18.30;99.90;;;;;;5034187;28;20036;-82
2022/07/21 05:07:37;;;;;;;38.72;26.38;;;18.30;99.90;;;;;;5034326;28;20047;-81
2022/07/21 05:10:07;;;;;;;51.08;29.83;;;18.20;99.90;;;;;;5034084;28;20028;-82
2022/07/21 05:12:33;;;;;;;37.50;26.85;;;18.30;99.90;;;;;;5032308;28;20036;-81
2022/07/21 05:14:59;;;;;;;37.22;26.20;;;18.20;99.90;;;;;;5049631;28;20587;-81
2022/07/21 05:17:24;;;;;;;43.42;27.95;;;18.30;99.90;;;;;;5048468;28;20097;-81
2022/07/21 05:19:50;;;;;;;37.05;28.55;;;18.30;99.90;;;;;;5033823;28;20478;-81
2022/07/21 05:22:19;;;;;;;60.03;33.50;;;18.30;99.90;;;;;;5050487;28;20033;-81
2022/07/21 05:24:45;;;;;;;39.65;30.40;;;18.30;99.90;;;;;;5050235;28;20563;-82
2022/07/21 05:27:11;;;;;;;58.92;32.90;;;18.30;99.90;;;;;;5033696;28;20127;-82
2022/07/21 05:29:37;;;;;;;52.72;34.10;;;18.20;99.90;;;;;;5050063;28;20127;-81
2022/07/21 05:32:03;;;;;;;52.10;32.30;;;18.40;99.90;;;;;;5032930;28;20040;-82
2022/07/21 05:34:29;;;;;;;46.00;31.20;;;18.40;99.90;;;;;;5046055;28;20089;-82
2022/07/21 05:36:55;;;;;;;45.85;32.00;;;18.40;99.90;;;;;;5032981;28;20087;-76
2022/07/21 05:39:21;;;;;;;53.08;34.05;;;18.40;99.90;;;;;;5046737;28;20052;-75
2022/07/21 05:41:46;;;;;;;47.25;30.08;;;18.40;99.90;;;;;;5048790;28;20497;-76
2022/07/21 05:44:12;;;;;;;42.08;30.23;;;18.50;99.90;;;;;;5048541;28;20039;-76
2022/07/21 05:46:38;;;;;;;42.20;29.52;;;18.50;99.90;;;;;;5015671;28;20086;-76
2022/07/21 05:49:04;;;;;;;40.03;31.52;;;18.50;99.90;;;;;;5031945;28;20045;-76
2022/07/21 05:51:30;;;;;;;38.25;26.90;;;18.50;99.90;;;;;;5050051;28;20044;-76
2022/07/21 05:53:56;;;;;;;38.85;28.08;;;18.50;99.90;;;;;;5048195;28;20402;-75
2022/07/21 05:56:21;;;;;;;38.40;27.58;;;18.50;99.90;;;;;;5050251;28;20048;-76
2022/07/21 05:58:47;;;;;;;38.97;28.60;;;18.40;99.90;;;;;;5017367;28;20475;-76
2022/07/21 06:01:13;;;;;;;43.08;31.30;;;18.40;99.90;;;;;;5049591;28;20036;-76
2022/07/21 06:03:50;;;;;;;41.38;29.92;;;18.50;99.90;;;;;;5030559;28;20508;-76
2022/07/21 06:06:20;;;;;;;41.97;29.40;;;18.40;99.90;;;;;;5048375;28;20036;-76
2022/07/21 06:08:47;;;;;;;38.78;28.45;;;18.50;99.90;;;;;;5031327;28;20036;-76
2022/07/21 06:11:16;;;;;;;38.10;27.83;;;18.50;99.90;;;;;;5016070;28;20048;-76
2022/07/21 06:13:41;;;;;;;39.10;28.67;;;18.50;99.90;;;;;;5048612;28;20428;-76
2022/07/21 06:16:08;;;;;;;37.97;28.17;;;18.50;99.90;;;;;;5044302;28;20036;-76
2022/07/21 06:18:34;;;;;;;41.45;28.92;;;18.50;99.90;;;;;;5034881;28;20037;-75
2022/07/21 06:21:00;;;;;;;36.95;27.33;;;18.60;99.90;;;;;;5049708;28;20043;-75
2022/07/21 06:23:26;;;;;;;39.05;29.10;;;18.60;99.90;;;;;;5048495;28;20098;-76
2022/07/21 06:25:52;;;;;;;44.65;27.90;;;18.50;99.90;;;;;;5033198;28;20036;-76
2022/07/21 06:28:18;;;;;;;44.22;30.75;;;18.50;99.90;;;;;;5035221;28;20429;-76
2022/07/21 06:30:44;;;;;;;38.33;28.70;;;18.50;99.90;;;;;;5018119;28;20044;-76
2022/07/21 06:33:10;;;;;;;42.80;31.83;;;18.50;99.90;;;;;;5050871;28;20048;-76
2022/07/21 06:35:37;;;;;;;40.80;29.63;;;18.40;99.90;;;;;;5036947;28;20044;-76
2022/07/21 06:38:03;;;;;;;45.47;29.63;;;18.40;99.90;;;;;;5040077;28;20032;-75
2022/07/21 06:40:29;;;;;;;40.03;30.45;;;18.40;99.90;;;;;;5056817;28;20525;-75
2022/07/21 06:42:55;;;;;;;42.42;28.88;;;18.40;99.90;;;;;;5039792;28;20036;-75
2022/07/21 06:45:22;;;;;;;48.92;30.80;;;18.30;99.90;;;;;;5038901;28;20036;-75
2022/07/21 06:47:48;;;;;;;45.75;31.80;;;18.40;99.90;;;;;;5018619;28;20046;-75
2022/07/21 06:50:14;;;;;;;40.40;29.45;;;18.40;99.90;;;;;;5035439;28;20436;-75
2022/07/21 06:52:40;;;;;;;41.83;30.33;;;18.40;99.90;;;;;;5051490;28;20127;-75
2022/07/21 06:55:07;;;;;;;41.55;29.17;;;18.40;99.90;;;;;;5032830;28;20040;-75
2022/07/21 06:57:34;;;;;;;41.75;29.40;;;18.40;99.90;;;;;;5046579;28;20083;-75
2022/07/21 07:00:00;;;;;;;48.55;33.00;;;18.50;99.90;;;;;;5047045;28;20076;-75
2022/07/21 07:02:26;;;;;;;41.63;28.25;;;18.50;99.90;;;;;;5032495;28;20128;-75
2022/07/21 07:04:52;;;;;;;44.17;30.65;;;18.60;99.90;;;;;;5057611;28;20122;-78
2022/07/21 07:07:18;;;;;;;36.88;28.33;;;18.60;99.90;;;;;;5019797;28;20036;-78
2022/07/21 07:09:43;;;;;;;41.90;30.10;;;18.70;99.90;;;;;;5024327;28;20508;-78
2022/07/21 07:12:09;;;;;;;44.40;29.92;;;18.70;99.90;;;;;;5019449;28;20094;-78
2022/07/21 07:14:35;;;;;;;55.97;33.25;;;18.70;99.90;;;;;;5025736;28;20041;-78
2022/07/21 07:17:03;;;;;;;44.42;31.80;;;18.80;99.90;;;;;;5036431;28;20032;-78
2022/07/21 07:19:30;;;;;;;36.90;26.67;;;18.80;99.90;;;;;;5037473;28;20037;-78
2022/07/21 07:21:56;;;;;;;39.45;28.60;;;18.80;99.90;;;;;;5031790;28;20513;-78
2022/07/21 07:24:22;;;;;;;43.78;31.42;;;18.80;99.90;;;;;;5023606;28;20044;-78
2022/07/21 07:26:48;;;;;;;43.30;31.67;;;18.80;99.90;;;;;;5040421;28;20390;-78
2022/07/21 07:29:14;;;;;;;37.60;29.10;;;18.80;99.90;;;;;;5035121;28;20397;-78
2022/07/21 07:31:40;;;;;;;44.88;32.10;;;18.80;99.90;;;;;;5028499;28;20097;-78
2022/07/21 07:34:07;;;;;;;38.97;29.83;;;18.80;99.90;;;;;;5019837;28;20076;-78
2022/07/21 07:36:35;;;;;;;40.30;30.90;;;18.80;99.90;;;;;;5027187;28;20521;-78
2022/07/21 07:39:01;;;;;;;43.97;30.52;;;18.90;99.90;;;;;;5037098;28;20051;-78
2022/07/21 07:41:28;;;;;;;39.92;29.70;;;19.00;99.90;;;;;;5051634;28;20167;-78
2022/07/21 07:44:06;;;;;;;43.35;31.27;;;19.10;99.90;;;;;;5032297;28;20060;-75
2022/07/21 07:46:34;;;;;;;42.10;32.17;;;19.20;99.90;;;;;;5051434;28;20398;-75
2022/07/21 07:49:00;;;;;;;39.42;31.23;;;19.40;99.90;;;;;;5035095;28;20033;-75
2022/07/21 07:51:26;;;;;;;42.33;32.60;;;19.50;99.90;;;;;;5037363;28;20494;-75
2022/07/21 07:53:52;;;;;;;38.13;30.10;;;19.50;99.90;;;;;;5069993;28;20040;-75
2022/07/21 07:56:17;;;;;;;38.97;30.58;;;19.50;99.90;;;;;;5056512;28;20040;-75
2022/07/21 07:58:52;;;;;;;41.20;32.13;;;19.50;99.90;;;;;;5053397;28;20036;-75
2022/07/21 08:01:18;;;;;;;41.13;32.33;;;19.50;99.90;;;;;;5053680;28;20427;-75
2022/07/21 08:03:45;;;;;;;42.03;30.02;;;19.70;99.90;;;;;;5053972;28;20036;-75
2022/07/21 08:06:20;;;;;;;36.10;29.17;;;19.90;99.90;;;;;;5038502;28;20040;-74
2022/07/21 08:09:01;;;;;;;36.03;29.60;;;19.90;99.90;;;;;;5053070;28;20094;-75
2022/07/21 08:11:27;;;;;;;29.30;24.48;;;19.90;99.90;;;;;;5054407;28;20574;-74
2022/07/21 08:13:53;;;;;;;33.50;25.63;;;19.80;99.90;;;;;;5036761;28;20112;-74
2022/07/21 08:16:21;;;;;;;30.60;25.17;;;19.80;99.90;;;;;;5053411;28;20123;-75
2022/07/21 08:18:47;;;;;;;30.77;25.38;;;19.90;99.90;;;;;;5037085;28;20036;-75
2022/07/21 08:21:13;;;;;;;29.98;25.23;;;19.90;99.90;;;;;;5047172;28;20044;-75
2022/07/21 08:23:47;;;;;;;30.42;26.40;;;20.10;99.90;;;;;;5049336;28;20033;-74
2022/07/21 08:26:13;;;;;;;27.42;23.83;;;20.30;99.90;;;;;;5026087;28;20529;-74
2022/07/21 08:28:39;;;;;;;28.17;23.67;;;20.30;99.90;;;;;;5022070;28;20076;-74
2022/07/21 08:31:05;;;;;;;29.45;23.77;;;20.20;99.90;;;;;;5039381;28;20033;-74
2022/07/21 08:33:33;;;;;;;29.35;22.95;;;20.10;99.90;;;;;;5046606;28;20479;-74
2022/07/21 08:36:00;;;;;;;27.30;22.25;;;20.10;99.90;;;;;;5039797;28;20044;-74
2022/07/21 08:38:25;;;;;;;28.55;23.20;;;20.00;99.90;;;;;;5009421;28;20103;-74
2022/07/21 08:40:52;;;;;;;28.25;24.83;;;19.80;99.90;;;;;;5017574;28;20572;-74
2022/07/21 08:43:18;;;;;;;31.50;25.02;;;19.60;99.90;;;;;;5024127;28;20509;-74
2022/07/21 08:45:44;;;;;;;29.50;26.13;;;19.50;99.90;;;;;;5020359;28;20071;-74
2022/07/21 08:48:10;;;;;;;27.98;23.75;;;19.60;99.90;;;;;;5037425;28;20072;-74
2022/07/21 08:50:40;;;;;;;32.03;25.33;;;19.70;99.90;;;;;;5036491;28;20044;-74
2022/07/21 08:53:06;;;;;;;32.35;26.52;;;19.90;99.90;;;;;;5061942;28;20093;-74
2022/07/21 08:55:36;;;;;;;31.75;25.77;;;20.10;99.90;;;;;;5053002;28;20413;-74
2022/07/21 08:58:05;;;;;;;37.78;27.02;;;20.30;99.90;;;;;;5052362;28;20051;-74
2022/07/21 09:00:34;;;;;;;30.77;23.73;;;20.30;99.90;;;;;;5036532;28;20036;-74
2022/07/21 09:03:24;;;;;;;29.45;24.08;;;20.40;99.90;;;;;;5061453;28;20036;-73
2022/07/21 09:06:11;;;;;;;27.58;22.30;;;20.40;99.90;;;;;;5052386;28;20032;-73
2022/07/21 09:08:49;;;;;;;25.15;20.70;;;20.40;99.90;;;;;;5052230;28;20036;-73
2022/07/21 09:11:33;;;;;;;24.48;20.25;;;20.20;99.90;;;;;;5035678;28;20040;-73
2022/07/21 09:14:10;;;;;;;24.23;20.63;;;20.10;99.90;;;;;;5035146;28;20036;-73
2022/07/21 09:16:37;;;;;;;24.88;20.35;;;20.10;99.90;;;;;;5035794;28;20040;-73
2022/07/21 09:19:04;;;;;;;21.77;19.35;;;20.10;99.90;;;;;;5054938;28;20102;-73
2022/07/21 09:21:30;;;;;;;25.52;20.02;;;20.10;99.90;;;;;;5036665;28;20422;-73
2022/07/21 09:24:16;;;;;;;25.63;19.60;;;20.10;99.90;;;;;;5024306;28;20535;-73
2022/07/21 09:27:06;;;;;;;23.77;19.95;;;20.10;99.90;;;;;;5035752;28;20044;-73
2022/07/21 09:29:37;;;;;;;24.35;19.73;;;20.10;99.90;;;;;;5020558;28;20033;-73
2022/07/21 09:32:25;;;;;;;25.63;21.25;;;20.10;99.90;;;;;;5037018;28;20587;-73
2022/07/21 09:34:58;;;;;;;25.05;19.48;;;20.10;99.90;;;;;;5046268;28;20048;-73
2022/07/21 09:37:25;;;;;;;28.77;19.83;;;20.30;99.90;;;;;;5023397;28;20418;-73
2022/07/21 09:40:14;;;;;;;24.02;18.77;;;20.40;99.90;;;;;;5041972;28;20528;-73
2022/07/21 09:42:42;;;;;;;22.70;17.60;;;20.70;99.90;;;;;;5040472;28;20119;-74
2022/07/21 09:45:15;;;;;;;21.92;17.90;;;20.90;99.90;;;;;;5046538;28;20036;-75
2022/07/21 09:47:42;;;;;;;22.40;18.27;;;20.80;99.90;;;;;;5049204;28;20040;-74
2022/07/21 09:50:12;;;;;;;22.48;18.30;;;20.80;99.90;;;;;;5050870;28;20741;-75
2022/07/21 09:52:42;;;;;;;22.38;17.77;;;20.70;99.90;;;;;;5050218;28;20036;-75
2022/07/21 09:55:13;;;;;;;24.75;19.40;;;20.70;99.90;;;;;;5047375;28;20075;-75
2022/07/21 09:57:43;;;;;;;24.73;20.15;;;20.70;99.90;;;;;;5041861;28;20044;-75
2022/07/21 10:00:16;;;;;;;23.50;20.48;;;20.70;99.90;;;;;;5045584;28;20048;-75
2022/07/21 10:02:43;;;;;;;25.10;19.45;;;20.60;99.90;;;;;;5061338;28;20561;-75
2022/07/21 10:05:15;;;;;;;25.15;19.38;;;20.60;99.90;;;;;;5044359;28;20047;-75
2022/07/21 10:07:43;;;;;;;28.75;20.75;;;20.50;99.90;;;;;;5043459;28;20044;-75
2022/07/21 10:10:11;;;;;;;25.58;20.30;;;20.40;99.90;;;;;;5065086;28;20044;-75
2022/07/21 10:12:36;;;;;;;28.83;20.77;;;20.30;99.90;;;;;;5061236;28;20032;-75
2022/07/21 10:15:03;;;;;;;26.35;22.25;;;20.30;99.90;;;;;;5044648;28;20040;-75
2022/07/21 10:17:29;;;;;;;29.65;21.17;;;20.30;99.90;;;;;;5042245;28;20092;-75
2022/07/21 10:20:28;;;;;;;31.33;21.80;;;20.20;99.90;;;;;;5060679;28;20040;-74
2022/07/21 10:23:21;;;;;;;31.58;22.13;;;20.20;99.90;;;;;;5049047;28;20106;-74
2022/07/21 10:25:48;;;;;;;29.45;24.05;;;20.20;99.90;;;;;;5041988;28;20032;-75
2022/07/21 10:28:34;;;;;;;29.75;22.27;;;20.20;99.90;;;;;;5044798;28;20036;-75
2022/07/21 10:31:16;;;;;;;32.20;23.52;;;20.30;99.90;;;;;;5044686;28;20581;-75
2022/07/21 10:33:45;;;;;;;40.72;25.77;;;20.40;99.90;;;;;;5043446;28;20055;-74
2022/07/21 10:36:33;;;;;;;35.58;25.50;;;20.40;99.90;;;;;;5075222;28;20044;-75
2022/07/21 10:39:08;;;;;;;36.17;25.75;;;20.40;99.90;;;;;;5058120;28;20051;-75
2022/07/21 10:41:46;;;;;;;36.45;25.25;;;20.50;99.90;;;;;;5058736;28;20082;-76
2022/07/21 10:44:27;;;;;;;34.50;26.25;;;20.50;99.90;;;;;;5042655;28;20040;-75
2022/07/21 10:47:09;;;;;;;34.67;25.55;;;20.60;99.90;;;;;;5058178;28;20045;-75
2022/07/21 10:49:50;;;;;;;36.83;27.92;;;20.60;99.90;;;;;;5059888;28;20036;-75
2022/07/21 10:52:34;;;;;;;39.75;27.60;;;20.60;99.90;;;;;;5059700;28;20048;-75
2022/07/21 10:55:28;;;;;;;38.97;27.65;;;20.60;99.90;;;;;;5042095;28;20041;-75
2022/07/21 10:58:15;;;;;;;38.97;28.45;;;20.60;99.90;;;;;;5021416;28;20246;-74
2022/07/21 11:00:45;;;;;;;40.45;27.65;;;20.70;99.90;;;;;;5028305;28;20341;-75
2022/07/21 11:03:34;;;;;;;36.95;27.70;;;20.70;99.90;;;;;;5014069;28;20442;-75
2022/07/21 11:06:06;;;;;;;38.00;27.73;;;20.80;99.90;;;;;;5041561;28;20048;-75
2022/07/21 11:08:42;;;;;;;34.67;26.83;;;20.90;99.90;;;;;;5052576;28;20281;-74
2022/07/21 11:11:11;;;;;;;35.42;26.58;;;21.00;99.90;;;;;;5034879;28;20136;-75
2022/07/21 11:14:09;;;;;;;35.00;26.33;;;21.10;99.90;;;;;;5036500;28;20047;-75
2022/07/21 11:19:32;;;;;;;29.95;23.23;;;21.30;99.90;;;;;;5053640;28;20409;-74
2022/07/21 11:22:00;;;;;;;28.13;21.27;;;21.40;99.90;;;;;;5053435;28;20505;-75
2022/07/21 11:24:27;;;;;;;27.20;22.00;;;21.40;99.90;;;;;;5052315;28;20052;-75
2022/07/21 11:27:21;;;;;;;27.60;21.30;;;21.40;99.90;;;;;;5054066;28;20402;-75
2022/07/21 11:29:49;;;;;;;26.90;21.85;;;21.30;99.90;;;;;;5052772;28;21285;-75
2022/07/21 11:32:17;;;;;;;29.70;22.80;;;21.20;99.90;;;;;;5053194;28;20724;-75
2022/07/21 11:34:52;;;;;;;31.42;22.40;;;21.30;99.90;;;;;;5050858;28;20082;-75
2022/07/21 11:37:29;;;;;;;28.25;22.38;;;21.40;99.90;;;;;;5051372;28;20044;-75
2022/07/21 11:39:55;;;;;;;29.42;22.05;;;21.40;99.90;;;;;;5035450;28;20098;-74
2022/07/21 11:42:21;;;;;;;28.80;22.75;;;21.50;99.90;;;;;;5028726;28;20036;-75
2022/07/21 11:59:51;;;;;;;29.15;20.65;;;22.10;99.90;;;;;;5067494;28;20450;-74
2022/07/21 12:02:22;;;;;;;28.48;21.08;;;21.80;99.90;;;;;;5037111;28;20449;-74
2022/07/21 12:04:51;;;;;;;22.90;19.63;;;21.70;99.90;;;;;;5058841;28;20024;-74
2022/07/21 12:07:21;;;;;;;28.63;21.27;;;21.50;99.90;;;;;;5058619;28;20032;-74
2022/07/21 12:09:59;;;;;;;25.00;20.92;;;21.40;99.90;;;;;;5035266;28;20044;-74
2022/07/21 12:12:29;;;;;;;22.05;19.58;;;21.30;99.90;;;;;;5059694;28;20044;-75
2022/07/21 12:14:56;;;;;;;25.00;19.20;;;21.10;99.90;;;;;;5055099;28;20508;-75
2022/07/21 12:17:43;;;;;;;22.38;19.38;;;21.10;99.90;;;;;;5038157;28;20044;-74
2022/07/21 12:20:10;;;;;;;22.90;19.13;;;21.00;99.90;;;;;;5048322;28;20162;-74
2022/07/21 12:22:46;;;;;;;23.52;20.20;;;21.00;99.90;;;;;;5054476;28;20032;-74
2022/07/21 12:25:15;;;;;;;23.45;20.95;;;21.00;99.90;;;;;;5059685;28;20254;-74
2022/07/21 12:27:46;;;;;;;26.05;19.98;;;21.10;99.90;;;;;;5061866;28;20562;-74
2022/07/21 12:30:34;;;;;;;37.33;23.60;;;21.10;99.90;;;;;;5060262;28;20050;-74
2022/07/21 12:33:23;;;;;;;26.55;21.33;;;21.20;99.90;;;;;;5063745;28;20525;-74
2022/07/21 12:36:05;;;;;;;24.70;20.77;;;21.20;99.90;;;;;;5061044;28;20437;-74
2022/07/21 12:38:41;;;;;;;;;;;21.10;99.90;;;;;;5046067;28;20489;-74
2022/07/21 12:41:09;;;;;;;24.17;20.17;;;21.10;99.90;;;;;;5036790;28;20384;-71
2022/07/21 12:43:35;;;;;;;29.30;22.83;;;21.10;99.90;;;;;;5055696;28;20375;-71
2022/07/21 12:46:02;;;;;;;23.60;19.83;;;21.10;99.90;;;;;;5052935;28;20040;-71
2022/07/21 12:48:33;;;;;;;17.50;15.07;;;21.10;99.90;;;;;;5058956;28;20036;-71
2022/07/21 12:51:03;;;;;;;13.70;9.82;;;21.10;99.90;;;;;;5038612;28;20151;-71
2022/07/21 12:53:29;;;;;;;7.38;6.32;;;21.20;99.90;;;;;;5056995;28;20078;-71
2022/07/21 12:55:56;;;;;;;6.18;5.45;;;21.30;99.90;;;;;;5011403;28;20072;-71
2022/07/21 12:58:22;;;;;;;11.38;8.63;;;21.30;99.90;;;;;;5048442;28;20533;-72